sensor_id;sensor_type;location;lat;lon;timestamp;pressure;altitude;pressure_sealevel;temperature;humidity
61408;BME280;47274;43.054;25.146;2023-04-21T00:02:04;95091.81;;;7.57;100.00
61408;BME280;47274;43.054;25.146;2023-04-21T00:04:30;95091.03;;;7.57;100.00
61408;BME280;47274;43.054;25.146;2023-04-21T00:06:57;95084.06;;;7.49;100.00
61408;BME280;47274;43.054;25.146;2023-04-21T00:09:26;95019.66;;;7.08;100.00
61408;BME280;47274;43.054;25.146;2023-04-21T00:11:52;95065.00;;;7.34;100.00
61408;BME280;47274;43.054;25.146;2023-04-21T00:14:18;95088.06;;;7.52;100.00
61408;BME280;47274;43.054;25.146;2023-04-21T00:16:44;95057.63;;;7.31;100.00
61408;BME280;47274;43.054;25.146;2023-04-21T00:19:10;95012.03;;;6.99;100.00
61408;BME280;47274;43.054;25.146;2023-04-21T00:21:38;95080.41;;;7.52;100.00
61408;BME280;47274;43.054;25.146;2023-04-21T00:24:04;95015.63;;;7.06;100.00
61408;BME280;47274;43.054;25.146;2023-04-21T00:26:30;95071.19;;;7.31;100.00
61408;BME280;47274;43.054;25.146;2023-04-21T00:28:57;95026.66;;;6.97;100.00
61408;BME280;47274;43.054;25.146;2023-04-21T00:31:22;95040.63;;;7.12;100.00
61408;BME280;47274;43.054;25.146;2023-04-21T00:33:48;95065.97;;;7.13;100.00
61408;BME280;47274;43.054;25.146;2023-04-21T00:36:14;95066.25;;;7.20;100.00
61408;BME280;47274;43.054;25.146;2023-04-21T00:38:40;95077.78;;;7.24;100.00
61408;BME280;47274;43.054;25.146;2023-04-21T00:41:07;95063.56;;;7.12;100.00
61408;BME280;47274;43.054;25.146;2023-04-21T00:43:33;95048.66;;;7.07;100.00
61408;BME280;47274;43.054;25.146;2023-04-21T00:45:58;95060.06;;;7.13;100.00
61408;BME280;47274;43.054;25.146;2023-04-21T00:48:24;95057.41;;;7.15;100.00
61408;BME280;47274;43.054;25.146;2023-04-21T00:50:50;95030.25;;;7.04;100.00
61408;BME280;47274;43.054;25.146;2023-04-21T00:53:16;95036.84;;;7.06;100.00
61408;BME280;47274;43.054;25.146;2023-04-21T00:55:43;95040.63;;;7.12;100.00
61408;BME280;47274;43.054;25.146;2023-04-21T00:58:13;95028.66;;;7.03;100.00
61408;BME280;47274;43.054;25.146;2023-04-21T01:00:38;95048.66;;;7.17;100.00
61408;BME280;47274;43.054;25.146;2023-04-21T01:03:05;95038.56;;;7.25;100.00
61408;BME280;47274;43.054;25.146;2023-04-21T01:05:32;95037.34;;;7.29;100.00
61408;BME280;47274;43.054;25.146;2023-04-21T01:07:58;95018.81;;;7.27;100.00
61408;BME280;47274;43.054;25.146;2023-04-21T01:10:23;95018.13;;;7.35;100.00
61408;BME280;47274;43.054;25.146;2023-04-21T01:12:50;95042.25;;;7.60;100.00
61408;BME280;47274;43.054;25.146;2023-04-21T01:15:16;95036.19;;;7.61;100.00
61408;BME280;47274;43.054;25.146;2023-04-21T01:17:42;95011.63;;;7.50;100.00
61408;BME280;47274;43.054;25.146;2023-04-21T01:20:11;95042.22;;;7.70;100.00
61408;BME280;47274;43.054;25.146;2023-04-21T01:22:39;95021.56;;;7.53;100.00
61408;BME280;47274;43.054;25.146;2023-04-21T01:25:07;95052.19;;;7.63;100.00
61408;BME280;47274;43.054;25.146;2023-04-21T01:27:35;95046.41;;;7.61;100.00
61408;BME280;47274;43.054;25.146;2023-04-21T01:30:02;95007.75;;;7.46;100.00
61408;BME280;47274;43.054;25.146;2023-04-21T01:32:28;95031.03;;;7.71;100.00
61408;BME280;47274;43.054;25.146;2023-04-21T01:34:55;95029.69;;;7.76;100.00
61408;BME280;47274;43.054;25.146;2023-04-21T01:37:25;95021.34;;;7.74;100.00
61408;BME280;47274;43.054;25.146;2023-04-21T01:39:54;95042.03;;;7.81;100.00
61408;BME280;47274;43.054;25.146;2023-04-21T01:42:23;95035.97;;;7.82;100.00
61408;BME280;47274;43.054;25.146;2023-04-21T01:44:49;95041.22;;;7.80;100.00
61408;BME280;47274;43.054;25.146;2023-04-21T01:47:16;95017.75;;;7.67;100.00
61408;BME280;47274;43.054;25.146;2023-04-21T01:49:42;95015.88;;;7.69;100.00
61408;BME280;47274;43.054;25.146;2023-04-21T01:52:08;95032.75;;;7.80;100.00
61408;BME280;47274;43.054;25.146;2023-04-21T01:54:34;95018.94;;;7.73;100.00
61408;BME280;47274;43.054;25.146;2023-04-21T01:57:00;95000.16;;;7.64;100.00
61408;BME280;47274;43.054;25.146;2023-04-21T01:59:27;95026.44;;;7.74;100.00
61408;BME280;47274;43.054;25.146;2023-04-21T02:01:52;95033.56;;;7.80;100.00
61408;BME280;47274;43.054;25.146;2023-04-21T02:04:18;95008.75;;;7.63;100.00
61408;BME280;47274;43.054;25.146;2023-04-21T02:06:44;95020.66;;;7.72;100.00
61408;BME280;47274;43.054;25.146;2023-04-21T02:09:10;95024.34;;;7.70;100.00
61408;BME280;47274;43.054;25.146;2023-04-21T02:11:36;95015.31;;;7.66;100.00
61408;BME280;47274;43.054;25.146;2023-04-21T02:14:02;94996.91;;;7.62;100.00
61408;BME280;47274;43.054;25.146;2023-04-21T02:16:28;95023.47;;;7.79;100.00
61408;BME280;47274;43.054;25.146;2023-04-21T02:18:55;95025.91;;;7.80;100.00
61408;BME280;47274;43.054;25.146;2023-04-21T02:21:24;95030.31;;;7.78;100.00
61408;BME280;47274;43.054;25.146;2023-04-21T02:23:51;95002.84;;;7.63;100.00
61408;BME280;47274;43.054;25.146;2023-04-21T02:26:17;95014.25;;;7.68;100.00
61408;BME280;47274;43.054;25.146;2023-04-21T02:28:43;94965.06;;;7.39;100.00
61408;BME280;47274;43.054;25.146;2023-04-21T02:31:09;95019.88;;;7.72;100.00
61408;BME280;47274;43.054;25.146;2023-04-21T02:33:35;94967.31;;;7.42;100.00
61408;BME280;47274;43.054;25.146;2023-04-21T02:36:01;94987.13;;;7.57;100.00
61408;BME280;47274;43.054;25.146;2023-04-21T02:38:27;95015.69;;;7.80;100.00
61408;BME280;47274;43.054;25.146;2023-04-21T02:40:53;95011.53;;;7.79;100.00
61408;BME280;47274;43.054;25.146;2023-04-21T02:43:19;95006.69;;;7.76;100.00
61408;BME280;47274;43.054;25.146;2023-04-21T02:45:45;95008.06;;;7.71;100.00
61408;BME280;47274;43.054;25.146;2023-04-21T02:48:11;95012.09;;;7.73;100.00
61408;BME280;47274;43.054;25.146;2023-04-21T02:50:37;95013.53;;;7.76;100.00
61408;BME280;47274;43.054;25.146;2023-04-21T02:53:04;94996.91;;;7.62;100.00
61408;BME280;47274;43.054;25.146;2023-04-21T02:55:30;95004.47;;;7.64;100.00
61408;BME280;47274;43.054;25.146;2023-04-21T02:57:56;95013.44;;;7.68;100.00
61408;BME280;47274;43.054;25.146;2023-04-21T03:00:23;95017.34;;;7.62;100.00
61408;BME280;47274;43.054;25.146;2023-04-21T03:02:48;95012.94;;;7.54;100.00
61408;BME280;47274;43.054;25.146;2023-04-21T03:05:15;94991.19;;;7.50;100.00
61408;BME280;47274;43.054;25.146;2023-04-21T03:07:44;95034.13;;;7.74;100.00
61408;BME280;47274;43.054;25.146;2023-04-21T03:10:10;95032.53;;;7.64;100.00
61408;BME280;47274;43.054;25.146;2023-04-21T03:12:36;95028.03;;;7.48;100.00
61408;BME280;47274;43.054;25.146;2023-04-21T03:15:02;95014.47;;;7.47;100.00
61408;BME280;47274;43.054;25.146;2023-04-21T03:17:28;95033.69;;;7.79;100.00
61408;BME280;47274;43.054;25.146;2023-04-21T03:19:54;95033.16;;;7.75;100.00
61408;BME280;47274;43.054;25.146;2023-04-21T03:22:20;95012.81;;;7.56;100.00
61408;BME280;47274;43.054;25.146;2023-04-21T03:24:46;95026.47;;;7.65;100.00
61408;BME280;47274;43.054;25.146;2023-04-21T03:27:12;95020.72;;;7.63;100.00
61408;BME280;47274;43.054;25.146;2023-04-21T03:29:37;95050.75;;;7.78;100.00
61408;BME280;47274;43.054;25.146;2023-04-21T03:32:03;95005.09;;;7.66;100.00
61408;BME280;47274;43.054;25.146;2023-04-21T03:34:29;95031.19;;;7.69;100.00
61408;BME280;47274;43.054;25.146;2023-04-21T03:36:58;95020.31;;;7.67;100.00
61408;BME280;47274;43.054;25.146;2023-04-21T03:39:24;94987.19;;;7.38;100.00
61408;BME280;47274;43.054;25.146;2023-04-21T03:41:51;95033.69;;;7.79;100.00
61408;BME280;47274;43.054;25.146;2023-04-21T03:44:17;95033.16;;;7.75;100.00
61408;BME280;47274;43.054;25.146;2023-04-21T03:46:42;95051.34;;;8.00;97.31
61408;BME280;47274;43.054;25.146;2023-04-21T03:49:08;95035.97;;;7.82;98.91
61408;BME280;47274;43.054;25.146;2023-04-21T03:51:34;95039.31;;;7.82;100.00
61408;BME280;47274;43.054;25.146;2023-04-21T03:54:00;95035.97;;;7.82;99.21
61408;BME280;47274;43.054;25.146;2023-04-21T03:56:26;95052.09;;;7.82;99.88
61408;BME280;47274;43.054;25.146;2023-04-21T03:58:51;95051.81;;;7.86;98.38
61408;BME280;47274;43.054;25.146;2023-04-21T04:01:17;95038.00;;;7.78;99.91
61408;BME280;47274;43.054;25.146;2023-04-21T04:03:43;95052.09;;;7.82;98.58
61408;BME280;47274;43.054;25.146;2023-04-21T04:06:09;95054.13;;;7.79;98.47
61408;BME280;47274;43.054;25.146;2023-04-21T04:08:35;95051.03;;;7.75;99.43
61408;BME280;47274;43.054;25.146;2023-04-21T04:11:00;95059.91;;;7.81;97.80
61408;BME280;47274;43.054;25.146;2023-04-21T04:13:26;95063.22;;;7.91;97.97
61408;BME280;47274;43.054;25.146;2023-04-21T04:15:53;95054.94;;;7.79;98.55
61408;BME280;47274;43.054;25.146;2023-04-21T04:18:19;95073.72;;;7.88;98.53
61408;BME280;47274;43.054;25.146;2023-04-21T04:20:45;95067.00;;;7.87;98.46
61408;BME280;47274;43.054;25.146;2023-04-21T04:23:11;95069.03;;;7.83;98.98
61408;BME280;47274;43.054;25.146;2023-04-21T04:25:37;95085.78;;;7.96;97.32
61408;BME280;47274;43.054;25.146;2023-04-21T04:28:03;95097.31;;;8.00;97.89
61408;BME280;47274;43.054;25.146;2023-04-21T04:30:30;95090.63;;;7.99;98.01
61408;BME280;47274;43.054;25.146;2023-04-21T04:32:57;95100.00;;;8.08;96.49
61408;BME280;47274;43.054;25.146;2023-04-21T04:35:23;95096.09;;;8.14;96.51
61408;BME280;47274;43.054;25.146;2023-04-21T04:37:49;95089.50;;;8.11;95.83
61408;BME280;47274;43.054;25.146;2023-04-21T04:40:15;95083.19;;;8.05;96.06
61408;BME280;47274;43.054;25.146;2023-04-21T04:42:41;95095.66;;;8.18;96.67
61408;BME280;47274;43.054;25.146;2023-04-21T04:45:07;95100.13;;;8.34;95.86
61408;BME280;47274;43.054;25.146;2023-04-21T04:47:37;95110.28;;;8.53;94.99
61408;BME280;47274;43.054;25.146;2023-04-21T04:50:03;95113.53;;;8.73;94.52
61408;BME280;47274;43.054;25.146;2023-04-21T04:52:29;95077.13;;;8.62;94.54
61408;BME280;47274;43.054;25.146;2023-04-21T04:54:55;95080.78;;;8.77;93.84
61408;BME280;47274;43.054;25.146;2023-04-21T04:57:21;95081.47;;;8.79;91.75
61408;BME280;47274;43.054;25.146;2023-04-21T04:59:47;95097.81;;;9.04;91.32
61408;BME280;47274;43.054;25.146;2023-04-21T05:02:13;95103.22;;;9.19;91.41
61408;BME280;47274;43.054;25.146;2023-04-21T05:04:39;95109.22;;;9.10;91.58
61408;BME280;47274;43.054;25.146;2023-04-21T05:07:05;95106.38;;;9.13;90.38
61408;BME280;47274;43.054;25.146;2023-04-21T05:09:33;95099.41;;;9.05;91.06
61408;BME280;47274;43.054;25.146;2023-04-21T05:11:59;95100.22;;;9.06;92.15
61408;BME280;47274;43.054;25.146;2023-04-21T05:14:26;95108.41;;;9.09;91.32
61408;BME280;47274;43.054;25.146;2023-04-21T05:16:52;95121.50;;;9.24;92.10
61408;BME280;47274;43.054;25.146;2023-04-21T05:19:20;95110.38;;;9.15;93.14
61408;BME280;47274;43.054;25.146;2023-04-21T05:21:46;95097.09;;;8.94;91.50
61408;BME280;47274;43.054;25.146;2023-04-21T05:24:12;95102.50;;;8.91;90.58
61408;BME280;47274;43.054;25.146;2023-04-21T05:26:37;95112.66;;;9.00;91.29
61408;BME280;47274;43.054;25.146;2023-04-21T05:29:03;95101.69;;;8.90;91.89
61408;BME280;47274;43.054;25.146;2023-04-21T05:31:29;95122.00;;;8.92;91.66
61408;BME280;47274;43.054;25.146;2023-04-21T05:33:55;95119.16;;;8.95;93.06
61408;BME280;47274;43.054;25.146;2023-04-21T05:36:21;95122.97;;;8.91;92.22
61408;BME280;47274;43.054;25.146;2023-04-21T05:38:49;95118.38;;;8.94;93.23
61408;BME280;47274;43.054;25.146;2023-04-21T05:41:15;95122.84;;;8.92;91.91
61408;BME280;47274;43.054;25.146;2023-04-21T05:43:40;95102.78;;;8.88;92.02
61408;BME280;47274;43.054;25.146;2023-04-21T05:46:09;95129.34;;;9.05;92.61
61408;BME280;47274;43.054;25.146;2023-04-21T05:48:36;95122.09;;;9.00;92.10
61408;BME280;47274;43.054;25.146;2023-04-21T05:51:09;95130.13;;;9.05;91.90
61408;BME280;47274;43.054;25.146;2023-04-21T05:53:37;95113.00;;;9.06;92.36
61408;BME280;47274;43.054;25.146;2023-04-21T05:56:03;95125.31;;;9.20;91.60
61408;BME280;47274;43.054;25.146;2023-04-21T05:58:29;95104.47;;;9.15;89.83
61408;BME280;47274;43.054;25.146;2023-04-21T06:00:55;95135.25;;;9.41;90.07
61408;BME280;47274;43.054;25.146;2023-04-21T06:03:20;95114.97;;;9.47;91.15
61408;BME280;47274;43.054;25.146;2023-04-21T06:05:46;95134.13;;;9.61;89.90
61408;BME280;47274;43.054;25.146;2023-04-21T06:08:12;95119.78;;;9.77;90.97
61408;BME280;47274;43.054;25.146;2023-04-21T06:10:38;95131.03;;;9.84;90.59
61408;BME280;47274;43.054;25.146;2023-04-21T06:13:03;95133.31;;;9.87;90.54
61408;BME280;47274;43.054;25.146;2023-04-21T06:15:29;95104.88;;;9.72;87.74
61408;BME280;47274;43.054;25.146;2023-04-21T06:17:55;95128.75;;;9.99;89.97
61408;BME280;47274;43.054;25.146;2023-04-21T06:20:21;95118.34;;;10.08;90.02
61408;BME280;47274;43.054;25.146;2023-04-21T06:22:46;95109.28;;;10.22;89.82
61408;BME280;47274;43.054;25.146;2023-04-21T06:25:12;95126.41;;;10.39;90.30
61408;BME280;47274;43.054;25.146;2023-04-21T06:27:38;95116.28;;;10.38;88.94
61408;BME280;47274;43.054;25.146;2023-04-21T06:30:04;95103.03;;;10.25;89.08
61408;BME280;47274;43.054;25.146;2023-04-21T06:32:30;95133.50;;;10.54;88.98
61408;BME280;47274;43.054;25.146;2023-04-21T06:34:56;95108.94;;;10.43;88.81
61408;BME280;47274;43.054;25.146;2023-04-21T06:37:22;95124.44;;;10.84;88.00
61408;BME280;47274;43.054;25.146;2023-04-21T06:39:47;95119.63;;;10.81;87.16
61408;BME280;47274;43.054;25.146;2023-04-21T06:42:13;95128.63;;;11.09;86.14
61408;BME280;47274;43.054;25.146;2023-04-21T06:44:41;95121.25;;;11.23;86.20
61408;BME280;47274;43.054;25.146;2023-04-21T06:47:07;95119.31;;;11.57;87.22
61408;BME280;47274;43.054;25.146;2023-04-21T06:49:33;95124.47;;;11.41;84.95
61408;BME280;47274;43.054;25.146;2023-04-21T06:51:58;95135.53;;;11.58;84.44
61408;BME280;47274;43.054;25.146;2023-04-21T06:54:24;95150.66;;;11.36;85.00
61408;BME280;47274;43.054;25.146;2023-04-21T06:56:50;95139.91;;;11.33;85.05
61408;BME280;47274;43.054;25.146;2023-04-21T06:59:16;95121.41;;;11.05;84.21
61408;BME280;47274;43.054;25.146;2023-04-21T07:01:41;95154.50;;;11.41;84.84
61408;BME280;47274;43.054;25.146;2023-04-21T07:04:07;95146.63;;;11.58;84.27
61408;BME280;47274;43.054;25.146;2023-04-21T07:06:33;95156.91;;;11.58;81.95
61408;BME280;47274;43.054;25.146;2023-04-21T07:08:59;95162.53;;;11.54;83.64
61408;BME280;47274;43.054;25.146;2023-04-21T07:11:24;95162.03;;;11.58;82.94
61408;BME280;47274;43.054;25.146;2023-04-21T07:13:53;95144.72;;;11.60;82.21
61408;BME280;47274;43.054;25.146;2023-04-21T07:16:19;95164.13;;;11.79;82.81
61408;BME280;47274;43.054;25.146;2023-04-21T07:18:45;95152.06;;;11.96;82.74
61408;BME280;47274;43.054;25.146;2023-04-21T07:21:11;95169.34;;;12.27;83.56
61408;BME280;47274;43.054;25.146;2023-04-21T07:23:37;95169.22;;;12.68;82.43
61408;BME280;47274;43.054;25.146;2023-04-21T07:26:02;95152.38;;;12.57;80.37
61408;BME280;47274;43.054;25.146;2023-04-21T07:28:28;95154.00;;;12.50;81.91
61408;BME280;47274;43.054;25.146;2023-04-21T07:30:54;95157.06;;;12.53;82.96
61408;BME280;47274;43.054;25.146;2023-04-21T07:33:21;95162.84;;;12.55;81.83
61408;BME280;47274;43.054;25.146;2023-04-21T07:35:46;95109.31;;;12.03;82.22
61408;BME280;47274;43.054;25.146;2023-04-21T07:38:12;95173.63;;;12.51;84.19
61408;BME280;47274;43.054;25.146;2023-04-21T07:40:38;95159.53;;;12.39;84.60
61408;BME280;47274;43.054;25.146;2023-04-21T07:43:04;95178.31;;;12.47;83.66
61408;BME280;47274;43.054;25.146;2023-04-21T07:45:29;95157.97;;;12.21;82.23
61408;BME280;47274;43.054;25.146;2023-04-21T07:47:55;95150.56;;;12.26;81.03
61408;BME280;47274;43.054;25.146;2023-04-21T07:50:21;95169.03;;;12.38;82.92
61408;BME280;47274;43.054;25.146;2023-04-21T07:52:47;95176.06;;;12.44;82.49
61408;BME280;47274;43.054;25.146;2023-04-21T07:55:13;95166.72;;;12.51;82.14
61408;BME280;47274;43.054;25.146;2023-04-21T07:57:39;95176.47;;;12.72;82.47
61408;BME280;47274;43.054;25.146;2023-04-21T08:00:05;95187.63;;;12.88;81.21
61408;BME280;47274;43.054;25.146;2023-04-21T08:02:37;95170.38;;;12.96;81.05
61408;BME280;47274;43.054;25.146;2023-04-21T08:05:04;95181.66;;;13.18;80.90
61408;BME280;47274;43.054;25.146;2023-04-21T08:07:30;95190.00;;;13.28;80.48
61408;BME280;47274;43.054;25.146;2023-04-21T08:09:56;95192.72;;;13.04;77.24
61408;BME280;47274;43.054;25.146;2023-04-21T08:12:21;95182.72;;;13.40;78.35
61408;BME280;47274;43.054;25.146;2023-04-21T08:14:47;95198.13;;;13.86;77.90
61408;BME280;47274;43.054;25.146;2023-04-21T08:17:13;95195.19;;;13.74;75.76
61408;BME280;47274;43.054;25.146;2023-04-21T08:19:39;95189.38;;;13.49;77.15
61408;BME280;47274;43.054;25.146;2023-04-21T08:22:05;95180.84;;;13.49;76.37
61408;BME280;47274;43.054;25.146;2023-04-21T08:24:31;95180.75;;;13.42;78.16
61408;BME280;47274;43.054;25.146;2023-04-21T08:26:57;95202.34;;;13.41;76.74
61408;BME280;47274;43.054;25.146;2023-04-21T08:29:22;95165.09;;;12.59;75.80
61408;BME280;47274;43.054;25.146;2023-04-21T08:31:48;95201.03;;;12.83;79.50
61408;BME280;47274;43.054;25.146;2023-04-21T08:34:14;95185.00;;;12.65;79.18
61408;BME280;47274;43.054;25.146;2023-04-21T08:36:40;95181.00;;;12.54;79.01
61408;BME280;47274;43.054;25.146;2023-04-21T08:39:07;95207.91;;;12.51;79.95
61408;BME280;47274;43.054;25.146;2023-04-21T08:41:33;95199.59;;;12.33;79.62
61408;BME280;47274;43.054;25.146;2023-04-21T08:43:59;95178.03;;;12.34;80.98
61408;BME280;47274;43.054;25.146;2023-04-21T08:46:26;95204.78;;;12.64;82.46
61408;BME280;47274;43.054;25.146;2023-04-21T08:48:52;95202.25;;;12.95;81.66
61408;BME280;47274;43.054;25.146;2023-04-21T08:51:22;95197.56;;;13.53;80.83
61408;BME280;47274;43.054;25.146;2023-04-21T08:53:48;95181.97;;;14.07;79.17
61408;BME280;47274;43.054;25.146;2023-04-21T08:56:14;95179.41;;;14.07;77.16
61408;BME280;47274;43.054;25.146;2023-04-21T08:58:40;95209.13;;;14.03;76.02
61408;BME280;47274;43.054;25.146;2023-04-21T09:01:06;95117.72;;;13.30;76.84
61408;BME280;47274;43.054;25.146;2023-04-21T09:03:32;95209.09;;;13.65;77.07
61408;BME280;47274;43.054;25.146;2023-04-21T09:06:04;95178.69;;;13.07;76.35
61408;BME280;47274;43.054;25.146;2023-04-21T09:08:31;95212.00;;;13.08;78.00
61408;BME280;47274;43.054;25.146;2023-04-21T09:10:58;95208.16;;;13.04;76.87
61408;BME280;47274;43.054;25.146;2023-04-21T09:13:33;95201.91;;;12.98;76.65
61408;BME280;47274;43.054;25.146;2023-04-21T09:16:04;95193.03;;;13.01;78.80
61408;BME280;47274;43.054;25.146;2023-04-21T09:18:31;95206.69;;;13.10;76.40
61408;BME280;47274;43.054;25.146;2023-04-21T09:21:07;95193.38;;;12.98;79.47
61408;BME280;47274;43.054;25.146;2023-04-21T09:23:43;95205.66;;;13.27;77.91
61408;BME280;47274;43.054;25.146;2023-04-21T09:26:10;95198.78;;;13.42;78.02
61408;BME280;47274;43.054;25.146;2023-04-21T09:28:36;95178.72;;;13.30;76.94
61408;BME280;47274;43.054;25.146;2023-04-21T09:33:48;95199.44;;;13.13;77.70
61408;BME280;47274;43.054;25.146;2023-04-21T09:36:25;95182.75;;;13.01;77.84
61408;BME280;47274;43.054;25.146;2023-04-21T09:38:59;95193.81;;;13.10;76.55
61408;BME280;47274;43.054;25.146;2023-04-21T09:41:26;95212.78;;;13.17;77.74
61408;BME280;47274;43.054;25.146;2023-04-21T09:43:52;95183.84;;;13.07;77.42
61408;BME280;47274;43.054;25.146;2023-04-21T09:46:18;95181.16;;;13.23;77.72
61408;BME280;47274;43.054;25.146;2023-04-21T09:48:46;95207.22;;;13.59;77.04
61408;BME280;47274;43.054;25.146;2023-04-21T09:51:16;95199.94;;;13.63;74.78
61408;BME280;47274;43.054;25.146;2023-04-21T09:53:44;95203.25;;;13.48;75.71
61408;BME280;47274;43.054;25.146;2023-04-21T09:56:13;95207.50;;;13.41;75.55
61408;BME280;47274;43.054;25.146;2023-04-21T09:58:45;95184.44;;;13.17;76.95
61408;BME280;47274;43.054;25.146;2023-04-21T10:01:13;95190.19;;;12.96;77.41
61408;BME280;47274;43.054;25.146;2023-04-21T10:03:39;95166.34;;;12.63;78.59
61408;BME280;47274;43.054;25.146;2023-04-21T10:06:06;95176.28;;;12.74;78.63
61408;BME280;47274;43.054;25.146;2023-04-21T10:08:33;95180.28;;;12.76;79.47
61408;BME280;47274;43.054;25.146;2023-04-21T10:11:01;95172.44;;;12.70;79.11
61408;BME280;47274;43.054;25.146;2023-04-21T10:13:27;95189.94;;;12.83;79.25
61408;BME280;47274;43.054;25.146;2023-04-21T10:16:09;95182.19;;;12.83;79.79
61408;BME280;47274;43.054;25.146;2023-04-21T10:18:37;95166.41;;;12.86;78.13
61408;BME280;47274;43.054;25.146;2023-04-21T10:21:06;95175.25;;;13.14;78.76
61408;BME280;47274;43.054;25.146;2023-04-21T10:23:43;95190.59;;;13.39;78.46
61408;BME280;47274;43.054;25.146;2023-04-21T10:29:03;95164.47;;;14.17;73.91
61408;BME280;47274;43.054;25.146;2023-04-21T10:31:51;95191.91;;;14.63;73.47
61408;BME280;47274;43.054;25.146;2023-04-21T10:34:28;95171.13;;;15.22;71.44
61408;BME280;47274;43.054;25.146;2023-04-21T10:39:31;95175.31;;;15.87;68.21
61408;BME280;47274;43.054;25.146;2023-04-21T10:47:28;95157.38;;;15.64;69.64
61408;BME280;47274;43.054;25.146;2023-04-21T10:49:58;95160.16;;;16.13;68.05
61408;BME280;47274;43.054;25.146;2023-04-21T10:52:31;95167.78;;;16.55;64.81
61408;BME280;47274;43.054;25.146;2023-04-21T10:57:31;95175.22;;;17.07;63.35
61408;BME280;47274;43.054;25.146;2023-04-21T10:59:57;95167.03;;;16.62;64.55
61408;BME280;47274;43.054;25.146;2023-04-21T11:02:23;95153.47;;;16.25;66.02
61408;BME280;47274;43.054;25.146;2023-04-21T11:04:50;95167.34;;;16.45;64.86
61408;BME280;47274;43.054;25.146;2023-04-21T11:07:21;95177.13;;;16.50;63.36
61408;BME280;47274;43.054;25.146;2023-04-21T11:09:56;95166.72;;;16.43;63.63
61408;BME280;47274;43.054;25.146;2023-04-21T11:12:26;95170.19;;;16.22;63.02
61408;BME280;47274;43.054;25.146;2023-04-21T11:14:52;95160.97;;;16.13;61.15
61408;BME280;47274;43.054;25.146;2023-04-21T11:17:19;95180.72;;;16.49;65.00
61408;BME280;47274;43.054;25.146;2023-04-21T11:19:50;95168.41;;;16.64;63.06
61408;BME280;47274;43.054;25.146;2023-04-21T11:22:17;95176.84;;;17.27;57.95
61408;BME280;47274;43.054;25.146;2023-04-21T11:24:47;95184.31;;;17.77;59.75
61408;BME280;47274;43.054;25.146;2023-04-21T11:27:13;95181.94;;;17.95;54.78
61408;BME280;47274;43.054;25.146;2023-04-21T11:29:40;95171.53;;;17.62;59.19
61408;BME280;47274;43.054;25.146;2023-04-21T11:32:07;95164.06;;;17.26;61.75
61408;BME280;47274;43.054;25.146;2023-04-21T11:34:35;95174.69;;;17.38;59.47
61408;BME280;47274;43.054;25.146;2023-04-21T11:37:01;95163.44;;;17.11;58.09
61408;BME280;47274;43.054;25.146;2023-04-21T11:39:27;95148.38;;;17.81;57.75
61408;BME280;47274;43.054;25.146;2023-04-21T11:41:53;95155.16;;;18.15;55.44
61408;BME280;47274;43.054;25.146;2023-04-21T11:44:36;95159.56;;;17.94;52.12
61408;BME280;47274;43.054;25.146;2023-04-21T11:47:16;95150.75;;;17.62;50.42
61408;BME280;47274;43.054;25.146;2023-04-21T11:49:47;95148.34;;;17.74;54.96
61408;BME280;47274;43.054;25.146;2023-04-21T11:55:05;95150.97;;;18.20;52.70
61408;BME280;47274;43.054;25.146;2023-04-21T11:57:32;95143.00;;;18.02;53.26
61408;BME280;47274;43.054;25.146;2023-04-21T11:59:59;95152.19;;;17.85;54.46
61408;BME280;47274;43.054;25.146;2023-04-21T12:02:28;95154.09;;;18.36;56.07
61408;BME280;47274;43.054;25.146;2023-04-21T12:07:22;95145.34;;;18.37;53.69
61408;BME280;47274;43.054;25.146;2023-04-21T12:09:51;95152.78;;;18.85;56.26
61408;BME280;47274;43.054;25.146;2023-04-21T12:12:17;95149.91;;;19.00;51.27
61408;BME280;47274;43.054;25.146;2023-04-21T12:14:44;95141.63;;;18.78;50.42
61408;BME280;47274;43.054;25.146;2023-04-21T12:17:10;95119.66;;;18.67;53.01
61408;BME280;47274;43.054;25.146;2023-04-21T12:19:39;95136.22;;;18.79;52.83
61408;BME280;47274;43.054;25.146;2023-04-21T12:22:08;95132.81;;;17.94;54.15
61408;BME280;47274;43.054;25.146;2023-04-21T12:24:34;95139.19;;;17.58;57.89
61408;BME280;47274;43.054;25.146;2023-04-21T12:27:00;95134.16;;;18.30;56.38
61408;BME280;47274;43.054;25.146;2023-04-21T12:29:27;95117.28;;;18.59;55.47
61408;BME280;47274;43.054;25.146;2023-04-21T12:31:53;95117.50;;;18.57;52.46
61408;BME280;47274;43.054;25.146;2023-04-21T12:34:19;95128.78;;;18.11;55.30
61408;BME280;47274;43.054;25.146;2023-04-21T12:36:45;95109.06;;;17.84;55.65
61408;BME280;47274;43.054;25.146;2023-04-21T12:39:11;95119.41;;;17.31;56.84
61408;BME280;47274;43.054;25.146;2023-04-21T12:41:39;95110.13;;;16.88;58.25
61408;BME280;47274;43.054;25.146;2023-04-21T12:44:05;95131.16;;;17.13;56.36
61408;BME280;47274;43.054;25.146;2023-04-21T12:46:31;95119.22;;;16.71;55.01
61408;BME280;47274;43.054;25.146;2023-04-21T12:48:57;95129.16;;;16.61;58.00
61408;BME280;47274;43.054;25.146;2023-04-21T12:51:23;95121.50;;;16.87;59.72
61408;BME280;47274;43.054;25.146;2023-04-21T12:53:49;95122.00;;;17.24;56.08
61408;BME280;47274;43.054;25.146;2023-04-21T12:56:15;95120.81;;;17.66;56.94
61408;BME280;47274;43.054;25.146;2023-04-21T12:58:41;95122.03;;;17.84;57.46
61408;BME280;47274;43.054;25.146;2023-04-21T13:01:07;95127.78;;;17.46;58.45
61408;BME280;47274;43.054;25.146;2023-04-21T13:03:32;95120.75;;;17.00;58.01
61408;BME280;47274;43.054;25.146;2023-04-21T13:05:58;95131.50;;;16.97;60.55
61408;BME280;47274;43.054;25.146;2023-04-21T13:08:24;95103.50;;;16.72;59.50
61408;BME280;47274;43.054;25.146;2023-04-21T13:10:50;95110.03;;;17.16;61.01
61408;BME280;47274;43.054;25.146;2023-04-21T13:13:16;95097.97;;;16.89;59.29